< < Back
Terminal Aerodrome Forecast


Current Version              Previous Versions:   1  2  3  4  5  6  7  8  9  

Terminal Aerodrome Forecast

414
FTUS42 KTAE 200500
TAFTLH
TAF
KTLH 200539Z 2006/2106 02004KT P6SM -RA BKN060 OVC100
     FM201100 04004KT P6SM BKN040 OVC070
     FM210100 05007KT P6SM OVC025=



Latest METAR

187
SAUS80 KWBC 202300 RRC
MTRTLH
METAR KTLH 202253Z 01005KT 10SM BKN070 16/10 A3009 RMK AO2 SLP188
T01560100 $


USA.gov is the U.S. government's official web portal to all federal, state and local government web resources and services.